Time;durP1;ratioP1;P1;durP2;ratioP2;P2;SDS_P1;SDS_P2;PMS_P1;PMS_P2;Temp;Humidity;BMP_temperature;BMP_pressure;BME280_temperature;BME280_humidity;BME280_pressure;Samples;Min_cycle;Max_cycle;Signal;HPM_P1;HPM_P2
2024/01/24 04:59:19;;;;;;;;;;;9.30;99.90;;;;;;5611557;22;20278;-78
2024/01/24 05:01:47;;;;;;;;;;;9.20;99.90;;;;;;5042186;28;20433;-79
2024/01/24 05:04:14;;;;;;;;;;;9.20;99.90;;;;;;5042036;28;19932;-78
2024/01/24 05:06:41;;;;;;;;;;;9.20;99.90;;;;;;5042113;28;20324;-78
2024/01/24 05:09:08;;;;;;;;;;;9.20;99.90;;;;;;5041856;28;19925;-77
2024/01/24 05:11:35;;;;;;;;;;;9.20;99.90;;;;;;5042531;28;19931;-76
2024/01/24 05:14:02;;;;;;;;;;;9.20;99.90;;;;;;5041399;28;19929;-77
2024/01/24 05:16:30;;;;;;;;;;;9.20;99.90;;;;;;5042328;28;19925;-76
2024/01/24 05:18:57;;;;;;;;;;;9.20;99.90;;;;;;5040846;28;20286;-76
2024/01/24 05:21:23;;;;;;;;;;;9.20;99.90;;;;;;5040434;28;19925;-76
2024/01/24 05:23:51;;;;;;;;;;;9.10;99.90;;;;;;5040146;28;19925;-76
2024/01/24 05:26:22;;;;;;;;;;;9.10;99.90;;;;;;5041316;28;19925;-77
2024/01/24 05:28:49;;;;;;;;;;;9.10;99.90;;;;;;5041702;28;19925;-77
2024/01/24 05:31:16;;;;;;;;;;;9.10;99.90;;;;;;5039290;28;19929;-72
2024/01/24 05:33:44;;;;;;;;;;;9.10;99.90;;;;;;5038289;28;19929;-72
2024/01/24 05:36:10;;;;;;;;;;;9.10;99.90;;;;;;5037666;28;19947;-72
2024/01/24 05:38:37;;;;;;;;;;;9.10;99.90;;;;;;5038482;28;19972;-77
2024/01/24 05:41:03;;;;;;;;;;;9.10;99.90;;;;;;5038338;28;19931;-77
2024/01/24 05:43:30;;;;;;;;;;;9.20;99.90;;;;;;5038786;28;19921;-76
2024/01/24 05:45:56;;;;;;;;;;;9.20;99.90;;;;;;5038455;28;19956;-76
2024/01/24 05:48:23;;;;;;;;;;;9.20;99.90;;;;;;5037737;28;19925;-72
2024/01/24 05:50:51;;;;;;;;;;;9.20;99.90;;;;;;5038144;28;19927;-72
2024/01/24 05:53:17;;;;;;;;;;;9.20;99.90;;;;;;5037848;28;19929;-72
2024/01/24 05:55:44;;;;;;;;;;;9.20;99.90;;;;;;5037598;28;20302;-69
2024/01/24 05:58:11;;;;;;;;;;;9.10;99.90;;;;;;5040282;28;19931;-74
2024/01/24 06:00:37;;;;;;;;;;;9.20;99.90;;;;;;5041644;28;19936;-74
2024/01/24 06:03:05;;;;;;;;;;;9.20;99.90;;;;;;5042339;28;19926;-75
2024/01/24 06:05:32;;;;;;;;;;;9.20;99.90;;;;;;5043003;28;19971;-73
2024/01/24 06:08:02;;;;;;;;;;;9.10;99.90;;;;;;5042197;28;19932;-74
2024/01/24 06:10:29;;;;;;;;;;;9.10;99.90;;;;;;5043115;28;19925;-73
2024/01/24 06:12:55;;;;;;;;;;;9.20;99.90;;;;;;5058211;28;19933;-74
2024/01/24 06:15:22;;;;;;;;;;;9.10;99.90;;;;;;5060021;28;19976;-74
2024/01/24 06:17:48;;;;;;;;;;;9.10;99.90;;;;;;5061217;28;19909;-74
2024/01/24 06:20:15;;;;;;;;;;;9.10;99.90;;;;;;5061082;28;19925;-73
2024/01/24 06:22:42;;;;;;;;;;;9.10;99.90;;;;;;5059790;28;19913;-74
2024/01/24 06:25:10;;;;;;;;;;;9.10;99.90;;;;;;5060559;28;19909;-73
2024/01/24 06:27:37;;;;;;;;;;;9.10;99.90;;;;;;5060937;28;19992;-74
2024/01/24 06:30:05;;;;;;;;;;;9.20;99.90;;;;;;5057693;28;19925;-74
2024/01/24 06:32:32;;;;;;;;;;;9.20;99.90;;;;;;5059799;28;19925;-74
2024/01/24 06:34:58;;;;;;;;;;;9.20;99.90;;;;;;5057114;28;19933;-75
2024/01/24 06:37:25;;;;;;;;;;;9.10;99.90;;;;;;5056883;28;19925;-74
2024/01/24 06:39:51;;;;;;;;;;;9.10;99.90;;;;;;5057567;28;19932;-74
2024/01/24 06:42:19;;;;;;;;;;;9.10;99.90;;;;;;5058576;28;19925;-74
2024/01/24 06:44:46;;;;;;;;;;;9.10;99.90;;;;;;5058471;28;19909;-72
2024/01/24 06:47:12;;;;;;;;;;;9.10;99.90;;;;;;5057650;28;19925;-72
2024/01/24 06:49:39;;;;;;;;;;;9.10;99.90;;;;;;5058290;28;19932;-73
2024/01/24 06:52:06;;;;;;;;;;;9.10;99.90;;;;;;5058016;28;19925;-73
2024/01/24 06:54:35;;;;;;;;;;;9.00;99.90;;;;;;5057984;28;19964;-73
2024/01/24 06:57:01;;;;;;;;;;;9.00;99.90;;;;;;5059011;28;19925;-73
2024/01/24 06:59:29;;;;;;;;;;;9.00;99.90;;;;;;5048482;28;19975;-74
2024/01/24 07:01:56;;;;;;;;;;;9.00;99.90;;;;;;5036293;28;20015;-73
2024/01/24 07:04:22;;;;;;;;;;;9.00;99.90;;;;;;5036305;28;19926;-73
2024/01/24 07:06:49;;;;;;;;;;;9.00;99.90;;;;;;5035149;28;20337;-74
2024/01/24 07:09:16;;;;;;;;;;;9.00;99.90;;;;;;5036076;28;19979;-74
2024/01/24 07:11:42;;;;;;;;;;;9.00;99.90;;;;;;5036636;28;19987;-74
2024/01/24 07:14:09;;;;;;;;;;;9.00;99.90;;;;;;5036724;28;19932;-77
2024/01/24 07:16:37;;;;;;;;;;;9.00;99.90;;;;;;5040849;28;19929;-75
2024/01/24 07:19:04;;;;;;;;;;;9.00;99.90;;;;;;5036184;28;19926;-74
2024/01/24 07:21:31;;;;;;;;;;;9.10;99.90;;;;;;5036108;28;19932;-75
2024/01/24 07:23:57;;;;;;;;;;;9.10;99.90;;;;;;5045668;28;19932;-76
2024/01/24 07:26:24;;;;;;;;;;;9.10;99.90;;;;;;5055457;28;19925;-76
2024/01/24 07:28:50;;;;;;;;;;;9.10;99.90;;;;;;5050259;28;19925;-76
2024/01/24 07:31:17;;;;;;;;;;;9.10;99.90;;;;;;5050366;28;19909;-74
2024/01/24 07:33:45;;;;;;;;;;;9.10;99.90;;;;;;5044468;28;20023;-74
2024/01/24 07:36:11;;;;;;;;;;;9.10;99.90;;;;;;5036149;28;20390;-75
2024/01/24 07:38:38;;;;;;;;;;;9.10;99.90;;;;;;5035604;28;20387;-74
2024/01/24 07:41:05;;;;;;;;;;;9.10;99.90;;;;;;5035629;28;19925;-75
2024/01/24 07:43:32;;;;;;;;;;;9.10;99.90;;;;;;5035359;28;19976;-75
2024/01/24 07:45:59;;;;;;;;;;;9.10;99.90;;;;;;5035467;28;20306;-75
2024/01/24 07:48:26;;;;;;;;;;;9.20;99.90;;;;;;5035287;28;19965;-74
2024/01/24 07:50:53;;;;;;;;;;;9.20;99.90;;;;;;5035194;28;19948;-74
2024/01/24 07:53:20;;;;;;;;;;;9.20;99.90;;;;;;5035189;28;19925;-74
2024/01/24 07:55:47;;;;;;;;;;;9.20;99.90;;;;;;5035226;28;19925;-74
2024/01/24 07:58:13;;;;;;;;;;;9.30;99.90;;;;;;5034998;28;19933;-74
2024/01/24 08:00:40;;;;;;;;;;;9.30;99.90;;;;;;5034610;28;19929;-74
2024/01/24 08:03:07;;;;;;;;;;;9.30;99.90;;;;;;5035268;28;19925;-74
2024/01/24 08:05:34;;;;;;;;;;;9.30;99.90;;;;;;5035064;28;20394;-74
2024/01/24 08:08:03;;;;;;;;;;;9.30;99.90;;;;;;5035442;28;20027;-74
2024/01/24 08:10:30;;;;;;;;;;;9.40;99.90;;;;;;5035155;28;19975;-74
2024/01/24 08:12:56;;;;;;;;;;;9.40;99.90;;;;;;5034885;28;19932;-74
2024/01/24 08:15:23;;;;;;;;;;;9.40;99.90;;;;;;5035033;28;19925;-74
2024/01/24 08:17:50;;;;;;;;;;;9.40;99.90;;;;;;5034697;28;19925;-75
2024/01/24 08:20:19;;;;;;;;;;;9.40;99.90;;;;;;5034875;28;19929;-74
2024/01/24 08:22:46;;;;;;;;;;;9.40;99.90;;;;;;5034641;28;19925;-74
2024/01/24 08:25:14;;;;;;;;;;;9.40;99.90;;;;;;5034242;28;19929;-74
2024/01/24 08:27:40;;;;;;;;;;;9.40;99.90;;;;;;5034752;28;19932;-75
2024/01/24 08:30:07;;;;;;;;;;;9.40;99.90;;;;;;5034496;28;19932;-74
2024/01/24 08:32:34;;;;;;;;;;;9.40;99.90;;;;;;5034653;28;19925;-74
2024/01/24 08:35:00;;;;;;;;;;;9.40;99.90;;;;;;5034622;28;19925;-75
2024/01/24 08:37:27;;;;;;;;;;;9.40;99.90;;;;;;5034646;28;19925;-75
2024/01/24 08:39:53;;;;;;;;;;;9.50;99.90;;;;;;5034746;28;19925;-74
2024/01/24 08:42:21;;;;;;;;;;;9.50;99.90;;;;;;5034852;28;19932;-74
2024/01/24 08:44:48;;;;;;;;;;;9.50;99.90;;;;;;5035171;28;19909;-75
2024/01/24 08:47:14;;;;;;;;;;;9.60;99.90;;;;;;5035110;28;19936;-74
2024/01/24 08:49:41;;;;;;;;;;;9.70;99.90;;;;;;5034528;28;20330;-74
2024/01/24 08:52:08;;;;;;;;;;;9.70;99.90;;;;;;5034740;28;20293;-74
2024/01/24 08:54:34;;;;;;;;;;;9.80;99.90;;;;;;5034405;28;19929;-74
2024/01/24 08:57:01;;;;;;;;;;;9.80;99.90;;;;;;5034217;28;19925;-74
2024/01/24 08:59:29;;;;;;;;;;;9.90;99.90;;;;;;5034226;28;19925;-74
2024/01/24 09:01:57;;;;;;;;;;;9.90;99.90;;;;;;5033860;28;20353;-74
2024/01/24 09:04:23;;;;;;;;;;;9.90;99.90;;;;;;5034213;28;19925;-74
2024/01/24 09:06:50;;;;;;;;;;;10.00;99.90;;;;;;5034272;28;19929;-74
2024/01/24 09:09:18;;;;;;;;;;;10.00;99.90;;;;;;5034221;28;19929;-74
2024/01/24 09:11:45;;;;;;;;;;;10.10;99.90;;;;;;5034027;28;20354;-74
2024/01/24 09:14:12;;;;;;;;;;;10.10;99.90;;;;;;5034041;28;19937;-74
2024/01/24 09:16:40;;;;;;;;;;;10.30;99.90;;;;;;5033978;28;20310;-74
2024/01/24 09:19:06;;;;;;;;;;;10.20;99.90;;;;;;5034106;28;19925;-74
2024/01/24 09:21:33;;;;;;;;;;;10.30;99.90;;;;;;5034168;28;19925;-74
2024/01/24 09:23:59;;;;;;;;;;;10.30;99.90;;;;;;5034217;28;20412;-74
2024/01/24 09:26:26;;;;;;;;;;;10.40;99.90;;;;;;5035073;28;19925;-74
2024/01/24 09:28:53;;;;;;;;;;;10.40;99.90;;;;;;5036067;28;19972;-74
2024/01/24 09:31:19;;;;;;;;;;;10.40;99.90;;;;;;5039329;28;19932;-74
2024/01/24 09:33:47;;;;;;;;;;;10.50;99.90;;;;;;5040405;28;19932;-73
2024/01/24 09:36:14;;;;;;;;;;;10.50;99.90;;;;;;5040187;28;19976;-74
2024/01/24 09:38:42;;;;;;;;;;;10.50;99.90;;;;;;5039845;28;19925;-73
2024/01/24 09:41:12;;;;;;;;;;;10.60;99.90;;;;;;5039283;28;20362;-73
2024/01/24 09:43:39;;;;;;;;;;;10.60;99.90;;;;;;5039136;28;19937;-73
2024/01/24 09:46:09;;;;;;;;;;;10.60;99.90;;;;;;5039683;28;19925;-73
2024/01/24 09:48:36;;;;;;;;;;;10.60;99.90;;;;;;5039431;28;20382;-73
2024/01/24 09:51:04;;;;;;;;;;;10.70;99.90;;;;;;5039303;28;19925;-73
2024/01/24 09:53:31;;;;;;;;;;;10.70;99.90;;;;;;5039324;28;19925;-74
2024/01/24 09:55:59;;;;;;;;;;;10.80;99.90;;;;;;5038647;28;20294;-74
2024/01/24 09:58:25;;;;;;;;;;;10.80;99.90;;;;;;5037308;28;19925;-74
2024/01/24 10:00:52;;;;;;;;;;;10.90;99.90;;;;;;5037009;28;19941;-74
2024/01/24 10:03:19;;;;;;;;;;;10.90;99.90;;;;;;5037696;28;19932;-74
2024/01/24 10:05:47;;;;;;;;;;;11.00;99.90;;;;;;5039071;28;20008;-74
2024/01/24 10:08:15;;;;;;;;;;;11.10;99.90;;;;;;5037608;28;19925;-74
2024/01/24 10:10:42;;;;;;;;;;;11.10;99.90;;;;;;5037557;28;19975;-74
2024/01/24 10:13:09;;;;;;;;;;;11.20;99.90;;;;;;5037132;28;20397;-74
2024/01/24 10:15:36;;;;;;;;;;;11.30;99.90;;;;;;5037388;28;19925;-74
2024/01/24 10:18:03;;;;;;;;;;;11.30;99.90;;;;;;5037505;28;19933;-74
2024/01/24 10:20:30;;;;;;;;;;;11.40;99.90;;;;;;5037280;28;19925;-74
2024/01/24 10:22:56;;;;;;;;;;;11.40;99.90;;;;;;5037041;28;20016;-74
2024/01/24 10:25:24;;;;;;;;;;;11.40;99.90;;;;;;5037349;28;20439;-75
2024/01/24 10:27:51;;;;;;;;;;;11.40;99.90;;;;;;5036868;28;19972;-74
2024/01/24 10:30:17;;;;;;;;;;;11.50;99.90;;;;;;5036425;28;19929;-74
2024/01/24 10:32:45;;;;;;;;;;;11.50;99.90;;;;;;5036461;28;20330;-75
2024/01/24 10:35:12;;;;;;;;;;;11.60;99.90;;;;;;5036565;28;19931;-74
2024/01/24 10:37:40;;;;;;;;;;;11.60;99.90;;;;;;5036473;28;19983;-74
2024/01/24 10:40:11;;;;;;;;;;;11.60;99.90;;;;;;5036473;28;19932;-74
2024/01/24 10:42:40;;;;;;;;;;;11.70;99.90;;;;;;5037391;28;19952;-74
2024/01/24 10:45:08;;;;;;;;;;;11.70;99.90;;;;;;5036424;28;19932;-74
2024/01/24 10:47:35;;;;;;;;;;;11.70;99.90;;;;;;5036496;28;19980;-74
2024/01/24 10:50:04;;;;;;;;;;;11.70;99.90;;;;;;5037061;28;19937;-74
2024/01/24 10:52:31;;;;;;;;;;;11.70;99.90;;;;;;5036920;28;19925;-75
2024/01/24 10:55:01;;;;;;;;;;;11.70;99.90;;;;;;5036463;28;20390;-74
2024/01/24 10:57:28;;;;;;;;;;;11.80;99.90;;;;;;5036740;28;19932;-74
2024/01/24 10:59:57;;;;;;;;;;;11.80;99.90;;;;;;5036206;28;19925;-74
2024/01/24 11:02:23;;;;;;;;;;;11.80;99.90;;;;;;5036058;28;19925;-76
2024/01/24 11:04:50;;;;;;;;;;;11.80;99.90;;;;;;5036375;28;19932;-74
2024/01/24 11:07:23;;;;;;;;;;;11.80;99.90;;;;;;5036373;28;19952;-75
2024/01/24 11:09:54;;;;;;;;;;;11.90;99.90;;;;;;5035755;28;19926;-75
2024/01/24 11:12:21;;;;;;;;;;;11.90;99.90;;;;;;5036914;28;19925;-73
2024/01/24 11:14:48;;;;;;;;;;;12.10;99.90;;;;;;5071509;22;19948;-76
2024/01/24 11:17:16;;;;;;;;;;;12.20;99.90;;;;;;5055848;28;19932;-76
2024/01/24 11:19:42;;;;;;;;;;;12.20;99.90;;;;;;5056777;28;19960;-76
2024/01/24 11:22:09;;;;;;;;;;;12.20;99.90;;;;;;5056481;28;19968;-76
2024/01/24 11:24:48;;;;;;;;;;;12.20;99.90;;;;;;5055921;28;19925;-76
2024/01/24 11:27:25;;;;;;;;;;;12.20;99.90;;;;;;5055376;28;19925;-76
2024/01/24 11:29:51;;;;;;;;;;;12.20;99.90;;;;;;5055004;28;19924;-76
2024/01/24 11:32:33;;;;;;;;;;;12.20;99.90;;;;;;5055469;28;19951;-76
2024/01/24 11:35:14;;;;;;;;;;;12.20;99.90;;;;;;5055010;28;19931;-77
2024/01/24 11:37:42;;;;;;;;;;;12.10;99.90;;;;;;5054886;28;19929;-77
2024/01/24 11:40:10;;;;;;;;;;;12.10;99.90;;;;;;5055768;28;19937;-76
2024/01/24 11:42:42;;;;;;;;;;;12.10;99.90;;;;;;5055624;28;20266;-76
2024/01/24 11:45:19;;;;;;;;;;;12.10;99.90;;;;;;5058363;28;19935;-76
2024/01/24 11:47:46;;;;;;;;;;;12.00;99.90;;;;;;5056597;28;19924;-76
2024/01/24 11:50:13;;;;;;;;;;;12.10;99.90;;;;;;5055488;28;20386;-77
2024/01/24 11:52:40;;;;;;;;;;;12.10;99.90;;;;;;5054552;28;20409;-77
2024/01/24 11:55:09;;;;;;;;;;;12.10;99.90;;;;;;5055335;28;19924;-76
2024/01/24 11:57:36;;;;;;;;;;;12.00;99.90;;;;;;5055386;28;19979;-76
2024/01/24 12:00:03;;;;;;;;;;;12.00;99.90;;;;;;5055152;28;19932;-76
2024/01/24 12:02:30;;;;;;;;;;;11.90;99.90;;;;;;5054861;28;19987;-76
2024/01/24 12:04:57;;;;;;;;;;;11.90;99.90;;;;;;5054652;28;19924;-76
2024/01/24 12:07:24;;;;;;;;;;;11.80;99.90;;;;;;5055430;28;19924;-76
2024/01/24 12:09:52;;;;;;;;;;;11.80;99.90;;;;;;5055344;28;19925;-76
2024/01/24 12:12:20;;;;;;;;;;;11.70;99.90;;;;;;5054818;28;20015;-76
2024/01/24 12:14:47;;;;;;;;;;;11.40;99.90;;;;;;5054830;28;20298;-76
2024/01/24 12:17:13;;;;;;;;;;;11.70;99.90;;;;;;5054967;28;19974;-76
2024/01/24 12:19:42;;;;;;;;;;;11.70;99.90;;;;;;5055045;28;19924;-76
2024/01/24 12:22:10;;;;;;;;;;;11.70;99.90;;;;;;5054994;28;19932;-76
2024/01/24 12:24:37;;;;;;;;;;;11.70;99.90;;;;;;5054426;28;20305;-76
2024/01/24 12:27:04;;;;;;;;;;;11.70;99.90;;;;;;5054731;28;19925;-76
2024/01/24 12:29:33;;;;;;;;;;;11.70;99.90;;;;;;5054384;28;19925;-76
2024/01/24 12:32:00;;;;;;;;;;;11.70;99.90;;;;;;5054466;28;19928;-76
2024/01/24 12:34:28;;;;;;;;;;;11.70;99.90;;;;;;5054477;28;19925;-76
2024/01/24 12:36:55;;;;;;;;;;;11.80;99.90;;;;;;5054974;28;19930;-76
2024/01/24 12:39:25;;;;;;;;;;;11.80;99.90;;;;;;5057115;28;20294;-75
2024/01/24 12:41:52;;;;;;;;;;;11.80;99.90;;;;;;5058688;28;20352;-76
2024/01/24 12:44:19;;;;;;;;;;;11.70;99.90;;;;;;5058202;28;19925;-75
2024/01/24 12:46:48;;;;;;;;;;;11.70;99.90;;;;;;5053832;28;20328;-76
2024/01/24 12:49:14;;;;;;;;;;;11.70;99.90;;;;;;5054182;28;19931;-75
2024/01/24 12:51:42;;;;;;;;;;;11.80;99.90;;;;;;5053858;28;20386;-75
2024/01/24 12:54:09;;;;;;;;;;;11.80;99.90;;;;;;5054075;28;19932;-75
2024/01/24 12:56:36;;;;;;;;;;;11.80;99.90;;;;;;5054843;28;19967;-76
2024/01/24 12:59:02;;;;;;;;;;;11.80;99.90;;;;;;5054935;28;19979;-75
2024/01/24 13:01:29;;;;;;;;;;;11.80;99.90;;;;;;5054718;28;19925;-75
2024/01/24 13:03:57;;;;;;;;;;;11.80;99.90;;;;;;5054068;28;19932;-75
2024/01/24 13:06:23;;;;;;;;;;;11.70;99.90;;;;;;5075285;28;19925;-75
2024/01/24 13:08:50;;;;;;;;;;;11.70;99.90;;;;;;5081699;28;19931;-75
2024/01/24 13:11:16;;;;;;;;;;;11.70;99.90;;;;;;5073965;28;19932;-76
2024/01/24 13:13:43;;;;;;;;;;;11.70;99.90;;;;;;5058231;28;19925;-77
2024/01/24 13:16:09;;;;;;;;;;;11.70;99.90;;;;;;5057784;28;19933;-75
2024/01/24 13:18:36;;;;;;;;;;;11.70;99.90;;;;;;5057706;28;19925;-75
2024/01/24 13:21:04;;;;;;;;;;;11.70;99.90;;;;;;5057665;28;20008;-76
2024/01/24 13:23:31;;;;;;;;;;;11.70;99.90;;;;;;5057472;28;19924;-75
2024/01/24 13:25:57;;;;;;;;;;;11.70;99.90;;;;;;5057298;28;20412;-76
2024/01/24 13:28:24;;;;;;;;;;;11.80;99.90;;;;;;5057274;28;20381;-76
2024/01/24 13:30:50;;;;;;;;;;;11.80;99.90;;;;;;5056937;28;19924;-76
2024/01/24 13:33:17;;;;;;;;;;;11.80;99.90;;;;;;5056912;28;19925;-76
2024/01/24 13:35:44;;;;;;;;;;;11.80;99.90;;;;;;5058847;28;19932;-78
2024/01/24 13:38:12;;;;;;;;;;;11.80;99.90;;;;;;5059250;28;19925;-76
2024/01/24 13:40:39;;;;;;;;;;;11.90;99.90;;;;;;5058641;28;20408;-76
2024/01/24 13:43:05;;;;;;;;;;;11.80;99.90;;;;;;5058612;28;19925;-76
2024/01/24 13:45:32;;;;;;;;;;;11.90;99.90;;;;;;5057966;28;19936;-76
2024/01/24 13:47:59;;;;;;;;;;;11.90;99.90;;;;;;5058412;28;19925;-76
2024/01/24 13:50:26;;;;;;;;;;;11.90;99.90;;;;;;5058302;28;20374;-76
2024/01/24 13:52:52;;;;;;;;;;;11.90;99.90;;;;;;5057808;28;19925;-77
2024/01/24 13:55:21;;;;;;;;;;;11.90;99.90;;;;;;5057071;28;20062;-76
2024/01/24 13:57:48;;;;;;;;;;;11.90;99.90;;;;;;5056877;28;19925;-76
2024/01/24 14:00:15;;;;;;;;;;;12.00;99.90;;;;;;5057774;28;19974;-76
2024/01/24 14:02:42;;;;;;;;;;;11.90;99.90;;;;;;5057512;28;19972;-76
2024/01/24 14:05:10;;;;;;;;;;;12.00;99.90;;;;;;5058656;28;19925;-76
2024/01/24 14:07:38;;;;;;;;;;;12.10;99.90;;;;;;5057672;28;19925;-75
2024/01/24 14:10:05;;;;;;;;;;;12.10;99.90;;;;;;5057844;28;19925;-75
2024/01/24 14:12:33;;;;;;;;;;;12.10;99.90;;;;;;5057354;28;19972;-76
2024/01/24 14:15:00;;;;;;;;;;;12.10;99.90;;;;;;5055953;28;20385;-75
2024/01/24 14:17:26;;;;;;;;;;;12.10;99.90;;;;;;5056245;28;19925;-76
2024/01/24 14:19:53;;;;;;;;;;;12.20;99.90;;;;;;5057082;28;19930;-75
2024/01/24 14:22:20;;;;;;;;;;;12.10;99.90;;;;;;5056637;28;20337;-76
2024/01/24 14:24:46;;;;;;;;;;;12.10;99.90;;;;;;5056540;28;19929;-76
2024/01/24 14:27:13;;;;;;;;;;;12.10;99.90;;;;;;5057518;28;19979;-76
2024/01/24 14:29:41;;;;;;;;;;;12.10;99.90;;;;;;5057327;28;19928;-76
2024/01/24 14:32:08;;;;;;;;;;;12.00;99.90;;;;;;5058457;28;19956;-76
2024/01/24 14:34:37;;;;;;;;;;;11.90;99.90;;;;;;5056361;28;19931;-75
2024/01/24 14:37:04;;;;;;;;;;;11.90;99.90;;;;;;5056741;28;19932;-75
2024/01/24 14:39:31;;;;;;;;;;;11.90;99.90;;;;;;5057048;28;19925;-76
2024/01/24 14:41:58;;;;;;;;;;;11.80;99.90;;;;;;5056308;28;19925;-75
2024/01/24 14:44:24;;;;;;;;;;;11.80;99.90;;;;;;5055497;28;20386;-75
2024/01/24 14:46:52;;;;;;;;;;;11.80;99.90;;;;;;5055873;28;19964;-75
2024/01/24 14:49:19;;;;;;;;;;;11.80;99.90;;;;;;5055840;28;19932;-76
2024/01/24 14:51:45;;;;;;;;;;;11.80;99.90;;;;;;5055842;28;19928;-76
2024/01/24 14:54:12;;;;;;;;;;;11.80;99.90;;;;;;5055263;28;20298;-75
2024/01/24 14:56:39;;;;;;;;;;;11.70;99.90;;;;;;5055689;28;19928;-75
2024/01/24 14:59:05;;;;;;;;;;;11.70;99.90;;;;;;5055620;28;19924;-76
2024/01/24 15:01:32;;;;;;;;;;;11.70;99.90;;;;;;5055765;28;19924;-76
2024/01/24 15:04:00;;;;;;;;;;;11.60;99.90;;;;;;5056373;28;19963;-76
2024/01/24 15:06:26;;;;;;;;;;;11.60;99.90;;;;;;5055788;28;20301;-79
2024/01/24 15:08:53;;;;;;;;;;;11.60;99.90;;;;;;5055822;28;20301;-78
2024/01/24 15:11:19;;;;;;;;;;;11.50;99.90;;;;;;5055612;28;20016;-77
2024/01/24 15:13:46;;;;;;;;;;;11.50;99.90;;;;;;5055184;28;19925;-76
2024/01/24 15:16:12;;;;;;;;;;;11.50;99.90;;;;;;5055107;28;20313;-76
2024/01/24 15:18:41;;;;;;;;;;;11.40;99.90;;;;;;5055321;28;19963;-76
2024/01/24 15:21:09;;;;;;;;;;;11.40;99.90;;;;;;5055284;28;19978;-76
2024/01/24 15:23:36;;;;;;;;;;;11.30;99.90;;;;;;5055928;28;19929;-75
2024/01/24 15:26:03;;;;;;;;;;;11.30;99.90;;;;;;5055572;28;19925;-73
2024/01/24 15:28:29;;;;;;;;;;;11.30;99.90;;;;;;5054641;28;19974;-74
2024/01/24 15:30:56;;;;;;;;;;;11.30;99.90;;;;;;5055315;28;19932;-74
2024/01/24 15:33:22;;;;;;;;;;;11.20;99.90;;;;;;5055134;28;19925;-73
2024/01/24 15:35:49;;;;;;;;;;;11.20;99.90;;;;;;5055484;28;19931;-73
2024/01/24 15:38:17;;;;;;;;;;;11.10;99.90;;;;;;5056918;28;19931;-74
2024/01/24 15:40:44;;;;;;;;;;;11.10;99.90;;;;;;5059578;28;19924;-74
2024/01/24 15:43:11;;;;;;;;;;;11.10;99.90;;;;;;5059368;28;19943;-72
2024/01/24 15:45:37;;;;;;;;;;;11.00;99.90;;;;;;5059615;28;19940;-73
2024/01/24 15:48:04;;;;;;;;;;;11.00;99.90;;;;;;5059317;28;19925;-73
2024/01/24 15:50:31;;;;;;;;;;;11.00;99.90;;;;;;5060039;28;20393;-74
2024/01/24 15:52:57;;;;;;;;;;;10.90;99.90;;;;;;5059739;28;19932;-73
2024/01/24 15:55:25;;;;;;;;;;;10.90;99.90;;;;;;5058601;28;19924;-74
2024/01/24 15:57:52;;;;;;;;;;;10.90;99.90;;;;;;5058755;28;19948;-74
2024/01/24 16:00:19;;;;;;;;;;;10.80;99.90;;;;;;5060027;28;19932;-75
2024/01/24 16:02:46;;;;;;;;;;;10.80;99.90;;;;;;5059824;28;20426;-75
2024/01/24 16:05:21;;;;;;;;;;;10.70;99.90;;;;;;5055476;28;20413;-74
2024/01/24 16:07:48;;;;;;;;;;;10.60;99.90;;;;;;5054849;28;19925;-74
2024/01/24 16:10:14;;;;;;;;;;;10.50;99.90;;;;;;5054703;28;20467;-75
2024/01/24 16:12:42;;;;;;;;;;;10.50;99.90;;;;;;5054543;28;19929;-75
2024/01/24 16:15:09;;;;;;;;;;;10.40;99.90;;;;;;5054088;28;19932;-76
2024/01/24 16:17:36;;;;;;;;;;;10.30;99.90;;;;;;5054045;28;20378;-75
2024/01/24 16:20:02;;;;;;;;;;;10.30;99.90;;;;;;5054381;28;20292;-75
2024/01/24 16:22:29;;;;;;;;;;;10.20;99.90;;;;;;5054484;28;20325;-75
2024/01/24 16:24:56;;;;;;;;;;;10.20;99.90;;;;;;5054128;28;20020;-75
2024/01/24 16:27:23;;;;;;;;;;;10.10;99.90;;;;;;5054681;28;20011;-75
2024/01/24 16:29:51;;;;;;;;;;;10.00;99.90;;;;;;5054455;28;20401;-74
2024/01/24 16:32:17;;;;;;;;;;;10.00;99.90;;;;;;5054310;28;19929;-75
2024/01/24 16:34:44;;;;;;;;;;;10.00;99.90;;;;;;5053975;28;20381;-74
2024/01/24 16:37:10;;;;;;;;;;;10.00;99.90;;;;;;5055147;28;19924;-75
2024/01/24 16:39:38;;;;;;;;;;;9.90;99.90;;;;;;5054107;28;19925;-75
2024/01/24 16:42:05;;;;;;;;;;;9.80;99.90;;;;;;5054206;28;19932;-75
2024/01/24 16:44:31;;;;;;;;;;;9.80;99.90;;;;;;5066362;28;19936;-75
2024/01/24 16:46:59;;;;;;;;;;;9.70;99.90;;;;;;5070532;28;19925;-74
2024/01/24 16:49:26;;;;;;;;;;;9.80;99.90;;;;;;5060376;28;19949;-74
2024/01/24 16:51:52;;;;;;;;;;;9.70;99.90;;;;;;5054473;28;20292;-74
2024/01/24 16:54:19;;;;;;;;;;;9.70;99.90;;;;;;5054205;28;20271;-75
2024/01/24 16:56:45;;;;;;;;;;;9.60;99.90;;;;;;5054411;28;20262;-75
2024/01/24 16:59:12;;;;;;;;;;;9.50;99.90;;;;;;5054150;28;20416;-75
2024/01/24 17:01:39;;;;;;;;;;;9.60;99.90;;;;;;5054456;28;19936;-74
2024/01/24 17:04:07;;;;;;;;;;;9.50;99.90;;;;;;5054218;28;19947;-76
2024/01/24 17:06:33;;;;;;;;;;;9.50;99.90;;;;;;5054377;28;20386;-76
2024/01/24 17:09:00;;;;;;;;;;;9.50;99.90;;;;;;5054757;28;19931;-75
2024/01/24 17:11:26;;;;;;;;;;;9.50;99.90;;;;;;5054111;28;20321;-75
2024/01/24 17:13:54;;;;;;;;;;;9.40;99.90;;;;;;5054635;28;20263;-75
2024/01/24 17:16:20;;;;;;;;;;;9.40;99.90;;;;;;5054688;28;19929;-75
2024/01/24 17:18:47;;;;;;;;;;;9.40;99.90;;;;;;5054155;28;19935;-75
2024/01/24 17:21:15;;;;;;;;;;;9.40;99.90;;;;;;5054115;28;19932;-75
2024/01/24 17:23:41;;;;;;;;;;;9.40;99.90;;;;;;5054673;28;19925;-79
2024/01/24 17:26:08;;;;;;;;;;;9.40;99.90;;;;;;5056026;28;19929;-75
2024/01/24 17:28:35;;;;;;;;;;;9.30;99.90;;;;;;5054761;28;19951;-75
2024/01/24 17:31:01;;;;;;;;;;;9.40;99.90;;;;;;5054503;28;19947;-76
2024/01/24 17:33:28;;;;;;;;;;;9.40;99.90;;;;;;5053935;28;20340;-74
2024/01/24 17:35:55;;;;;;;;;;;9.30;99.90;;;;;;5053532;28;20374;-73
2024/01/24 17:38:23;;;;;;;;;;;9.30;99.90;;;;;;5053221;28;20360;-74
2024/01/24 17:40:49;;;;;;;;;;;9.40;99.90;;;;;;5053560;28;19925;-74
2024/01/24 17:43:16;;;;;;;;;;;9.30;99.90;;;;;;5053706;28;19925;-76
2024/01/24 17:45:43;;;;;;;;;;;9.50;99.90;;;;;;5053982;28;19998;-73
2024/01/24 17:48:09;;;;;;;;;;;9.30;99.90;;;;;;5053677;28;20333;-74
2024/01/24 17:50:47;;;;;;;;;;;9.30;99.90;;;;;;5055334;28;19932;-74
2024/01/24 17:53:18;;;;;;;;;;;9.30;99.90;;;;;;5061010;28;19971;-74
2024/01/24 17:55:47;;;;;;;;;;;9.20;99.90;;;;;;5060546;28;19960;-74
2024/01/24 17:58:13;;;;;;;;;;;9.20;99.90;;;;;;5061864;28;19924;-74
2024/01/24 18:00:42;;;;;;;;;;;9.40;99.90;;;;;;5062010;28;19924;-75
2024/01/24 18:03:09;;;;;;;;;;;9.20;99.90;;;;;;5062363;28;20058;-74
2024/01/24 18:05:35;;;;;;;;;;;9.20;99.90;;;;;;5061793;28;19925;-74
2024/01/24 18:08:03;;;;;;;;;;;9.20;99.90;;;;;;5062372;28;19935;-74
2024/01/24 18:10:31;;;;;;;;;;;9.20;99.90;;;;;;5063901;28;20035;-74
2024/01/24 18:13:09;;;;;;;;;;;9.10;99.90;;;;;;5062050;28;19924;-74
2024/01/24 18:15:41;;;;;;;;;;;9.10;99.90;;;;;;5060905;28;19964;-74
2024/01/24 18:18:08;;;;;;;;;;;9.30;99.90;;;;;;5064762;28;19955;-75
2024/01/24 18:20:37;;;;;;;;;;;9.10;99.90;;;;;;5064446;28;19925;-75
2024/01/24 18:23:07;;;;;;;;;;;8.90;99.90;;;;;;5063237;28;20294;-75
2024/01/24 18:25:37;;;;;;;;;;;8.90;99.90;;;;;;5062988;28;19925;-75
2024/01/24 18:28:05;;;;;;;;;;;9.00;99.90;;;;;;5063042;28;19931;-75
2024/01/24 18:30:35;;;;;;;;;;;8.90;99.90;;;;;;5065260;28;20023;-75
2024/01/24 18:33:16;;;;;;;;;;;8.70;99.90;;;;;;5064900;28;19935;-75
2024/01/24 18:35:43;;;;;;;;;;;8.50;99.90;;;;;;5061634;28;20279;-75
2024/01/24 18:38:09;;;;;;;;;;;10.10;99.90;;;;;;5060441;28;19975;-76
2024/01/24 18:40:36;;;;;;;;;;;8.30;99.90;;;;;;5060740;28;19925;-75
2024/01/24 18:43:03;;;;;;;;;;;8.30;99.90;;;;;;5061516;28;19936;-75
2024/01/24 18:45:29;;;;;;;;;;;8.20;99.90;;;;;;5061108;28;19925;-75
2024/01/24 18:47:58;;;;;;;;;;;8.10;99.90;;;;;;5061862;28;20285;-76
2024/01/24 18:50:25;;;;;;;;;;;8.00;99.90;;;;;;5061521;28;19975;-76
2024/01/24 18:52:51;;;;;;;;;;;7.90;99.90;;;;;;5061900;28;19928;-75
2024/01/24 18:55:18;;;;;;;;;;;7.80;99.90;;;;;;5061896;28;19931;-75
2024/01/24 18:57:45;;;;;;;;;;;7.70;99.90;;;;;;5060899;28;19932;-75
2024/01/24 19:00:12;;;;;;;;;;;7.60;99.90;;;;;;5060587;28;19925;-75
2024/01/24 19:02:38;;;;;;;;;;;7.50;99.90;;;;;;5061219;28;19974;-76
2024/01/24 19:05:06;;;;;;;;;;;7.40;99.90;;;;;;5059741;28;19925;-75
2024/01/24 19:07:33;;;;;;;;;;;7.40;99.90;;;;;;5059152;28;19929;-74
2024/01/24 19:10:00;;;;;;;;;;;7.30;99.90;;;;;;5059981;28;19931;-74
2024/01/24 19:12:27;;;;;;;;;;;7.30;99.90;;;;;;5060030;28;19932;-73
2024/01/24 19:14:53;;;;;;;;;;;7.20;99.90;;;;;;5059684;28;19999;-74
2024/01/24 19:17:20;;;;;;;;;;;7.10;99.90;;;;;;5059921;28;19925;-74
2024/01/24 19:19:46;;;;;;;;;;;7.10;99.90;;;;;;5060744;28;19924;-75
2024/01/24 19:22:14;;;;;;;;;;;7.00;99.90;;;;;;5060759;28;19925;-75